Time,TemperatureF,DewpointF,PressureIn,WindDirection,WindDirectionDegrees,WindSpeedMPH,WindSpeedGustMPH,Humidity,HourlyPrecipIn,Conditions,Clouds,dailyrainin,SolarRadiationWatts/m^2,SoftwareType,DateUTC
2013-03-22 00:00:00,27.0,8.0,29.79,WSW,258,5.0,-999.0,43,-99.99,,,-99.99,0.000000,,2013-03-22 04:00:00,
2013-03-22 00:52:00,27.0,8.0,29.79,WSW,258,5.0,-999.0,43,-99.99,,,-99.99,0.000000,,2013-03-22 04:52:00,
2013-03-22 04:00:00,27.0,8.0,29.80,WSW,256,8.0,-999.0,44,-99.99,,,-99.99,0.020000,,2013-03-22 08:00:00,
2013-03-22 04:52:00,27.0,8.0,29.80,WSW,256,8.0,-999.0,44,-99.99,,,-99.99,0.020000,,2013-03-22 08:52:00,
2013-03-22 05:00:00,26.0,9.0,29.79,South,182,4.0,-999.0,49,-99.99,,,-99.99,0.010000,,2013-03-22 09:00:00,
2013-03-22 05:53:00,26.0,9.0,29.79,South,182,4.0,-999.0,49,-99.99,,,-99.99,0.010000,,2013-03-22 09:53:00,
2013-03-22 06:00:00,27.0,9.0,29.81,SW,216,3.0,-999.0,47,-99.99,,,-99.99,0.030000,,2013-03-22 10:00:00,
2013-03-22 06:52:00,27.0,9.0,29.81,SW,216,3.0,-999.0,47,-99.99,,,-99.99,0.030000,,2013-03-22 10:52:00,
2013-03-22 11:00:00,35.0,12.0,29.86,WSW,241,10.0,-999.0,37,-99.99,,,-99.99,503.880005,,2013-03-22 15:00:00,
2013-03-22 11:53:00,35.0,12.0,29.86,WSW,241,10.0,-999.0,37,-99.99,,,-99.99,503.880005,,2013-03-22 15:53:00,
2013-03-22 12:00:00,37.0,11.0,29.85,SW,223,9.0,-999.0,34,-99.99,,,-99.99,622.200012,,2013-03-22 16:00:00,
2013-03-22 12:53:00,37.0,11.0,29.85,SW,223,9.0,-999.0,34,-99.99,,,-99.99,622.200012,,2013-03-22 16:53:00,
2013-03-22 13:00:00,41.0,11.0,29.82,SW,228,10.0,-999.0,29,-99.99,,,-99.99,693.599976,,2013-03-22 17:00:00,
2013-03-22 13:53:00,41.0,11.0,29.82,SW,228,10.0,-999.0,29,-99.99,,,-99.99,693.599976,,2013-03-22 17:53:00,
2013-03-22 14:00:00,43.0,14.0,29.79,WSW,248,9.0,-999.0,30,-99.99,,,-99.99,704.650024,,2013-03-22 18:00:00,
2013-03-22 14:52:00,43.0,14.0,29.79,WSW,248,9.0,-999.0,30,-99.99,,,-99.99,704.650024,,2013-03-22 18:52:00,
2013-03-22 15:00:00,45.0,13.0,29.77,SW,232,10.0,-999.0,27,-99.99,,,-99.99,668.099976,,2013-03-22 19:00:00,
2013-03-22 15:52:00,45.0,13.0,29.77,SW,232,10.0,-999.0,27,-99.99,,,-99.99,668.099976,,2013-03-22 19:52:00,
2013-03-22 16:00:00,47.0,12.0,29.75,SW,232,9.0,-999.0,23,-99.99,,,-99.99,582.080017,,2013-03-22 20:00:00,
2013-03-22 16:52:00,47.0,12.0,29.75,SW,232,9.0,-999.0,23,-99.99,,,-99.99,582.080017,,2013-03-22 20:52:00,
2013-03-22 18:00:00,49.0,11.0,29.76,West,281,7.0,-999.0,21,-99.99,,,-99.99,283.220001,,2013-03-22 22:00:00,
2013-03-22 18:53:00,49.0,11.0,29.76,West,281,7.0,-999.0,21,-99.99,,,-99.99,283.220001,,2013-03-22 22:53:00,
2013-03-22 19:00:00,48.0,13.0,29.78,WNW,286,6.0,-999.0,24,-99.99,,,-99.99,99.449997,,2013-03-22 23:00:00,
2013-03-22 19:52:00,48.0,13.0,29.78,WNW,286,6.0,-999.0,24,-99.99,,,-99.99,99.449997,,2013-03-22 23:52:00,
2013-03-22 20:00:00,43.0,16.0,29.80,NW,310,3.0,-999.0,33,-99.99,,,-99.99,5.330000,,2013-03-23 00:00:00,
2013-03-22 20:52:00,43.0,16.0,29.80,NW,310,3.0,-999.0,33,-99.99,,,-99.99,5.330000,,2013-03-23 00:52:00,